KLNQ

Boothville Heliport

Boothville, Louisiana, USA
METAR KLNQ 151855Z AUTO 18010KT 10SM OVC050 20/15 A2991 RMK AO2 T02030150
Observed Flight Rules
Feb-15 @ 18:55 UTC (16 minutes ago) Visual Flight Rules
Wind Visibility Clouds
180° at 10 knots 10 miles
  • Overcast at 5,000' AGL
Temperatures Readings
Current 20°C / 68°F
Dewpoint 15°C / 59°F
Humidity 73%
Altimeter 29.91" Hg
Pressure 1012.92 hPa
Elevation 1
METAR KLNQ 151855Z AUTO 18010KT 10SM OVC050 20/15 A2991 RMK AO2 T02030150
Observed Flight Rules
Feb-15 @ 18:55 UTC
(16 minutes ago)
VFR
Wind Visibility
180° at 10 knots 10 miles
Clouds
  • Overcast at 5,000' AGL
Temperature Dewpoint
20°C / 68°F 15°C / 59°F
Humidity Altimeter Pressure
73% 29.91" Hg 1012.92 hPa